createdAt,value
2022-08-23T04:01:49.928Z,100174.43
2022-08-23T04:04:20.889Z,100178.51
2022-08-23T04:07:11.302Z,100172.34
2022-08-23T04:09:42.764Z,100159.05
2022-08-23T04:12:38.680Z,100159.02
2022-08-23T04:15:12.591Z,100162.50
2022-08-23T04:17:43.558Z,100155.17
2022-08-23T04:20:13.239Z,100155.06
2022-08-23T04:22:55.809Z,100151.57
2022-08-23T04:25:33.252Z,100145.71
2022-08-23T04:28:05.059Z,100146.38
2022-08-23T04:30:35.781Z,100147.77
2022-08-23T04:33:10.195Z,100144.42
2022-08-23T04:35:42.912Z,100143.58
2022-08-23T04:38:24.066Z,100136.23
2022-08-23T04:41:17.373Z,100132.05
2022-08-23T04:43:48.845Z,100129.28
2022-08-23T04:46:18.980Z,100125.27
2022-08-23T04:48:49.839Z,100126.10
2022-08-23T04:51:20.302Z,100130.36
2022-08-23T04:53:50.206Z,100139.84
2022-08-23T04:56:43.979Z,100138.92
2022-08-23T04:59:20.955Z,100136.98
2022-08-23T05:01:51.350Z,100137.27
2022-08-23T05:04:21.124Z,100136.34
2022-08-23T05:06:52.891Z,100137.86
2022-08-23T05:09:25.842Z,100139.66
2022-08-23T05:11:56.036Z,100143.11
2022-08-23T05:14:26.173Z,100147.98
2022-08-23T05:16:56.056Z,100153.56
2022-08-23T05:19:26.270Z,100155.63
2022-08-23T05:21:57.181Z,100149.24
2022-08-23T05:24:36.276Z,100148.73
2022-08-23T05:27:05.641Z,100159.05
2022-08-23T05:29:35.203Z,100188.27
2022-08-23T05:32:05.609Z,100208.23
2022-08-23T05:34:35.422Z,100217.98
2022-08-23T05:37:12.232Z,100225.80
2022-08-23T05:39:43.511Z,100226.38
2022-08-23T05:42:16.184Z,100228.89
2022-08-23T05:44:46.710Z,100231.14
2022-08-23T05:47:17.412Z,100232.91
2022-08-23T05:50:14.890Z,100228.88
2022-08-23T05:52:50.382Z,100230.48
2022-08-23T05:55:22.182Z,100231.05
2022-08-23T05:58:00.927Z,100227.84
2022-08-23T06:00:38.027Z,100211.67
2022-08-23T06:03:11.569Z,100211.11
2022-08-23T06:05:42.157Z,100219.23
2022-08-23T06:08:13.371Z,100217.30
2022-08-23T06:10:42.864Z,100223.12
2022-08-23T06:13:33.478Z,100226.60
2022-08-23T06:16:14.759Z,100230.62
2022-08-23T06:18:46.873Z,100220.19
2022-08-23T06:21:47.241Z,100224.98
2022-08-23T06:24:20.369Z,100223.98
2022-08-23T06:26:57.927Z,100237.45
2022-08-23T06:29:27.926Z,100240.10
2022-08-23T06:32:36.678Z,100247.42
2022-08-23T06:35:37.934Z,100245.86
2022-08-23T06:38:13.672Z,100246.13
2022-08-23T06:41:04.637Z,100244.00
2022-08-23T06:43:44.890Z,100249.63
2022-08-23T06:46:25.710Z,100252.58
2022-08-23T06:49:00.054Z,100254.65
2022-08-23T06:51:43.976Z,100254.19
2022-08-23T06:54:26.406Z,100250.52
2022-08-23T06:57:01.042Z,100248.25
2022-08-23T06:59:50.303Z,100245.98
2022-08-23T07:02:46.423Z,100243.05
2022-08-23T07:05:38.527Z,100248.04
2022-08-23T07:08:14.072Z,100254.96
2022-08-23T07:10:44.714Z,100259.98
2022-08-23T07:13:18.366Z,100263.20
2022-08-23T07:15:50.129Z,100262.72
2022-08-23T07:18:22.576Z,100262.66
2022-08-23T07:20:57.425Z,100267.52
2022-08-23T07:23:28.476Z,100268.85
2022-08-23T07:25:58.828Z,100262.45
2022-08-23T07:28:31.736Z,100266.12
2022-08-23T07:31:14.606Z,100265.92
2022-08-23T07:33:46.431Z,100261.86
2022-08-23T07:36:23.836Z,100263.66
2022-08-23T07:38:54.351Z,100260.59
2022-08-23T07:41:26.485Z,100265.23
2022-08-23T07:44:00.679Z,100261.48
2022-08-23T07:46:33.766Z,100259.88
2022-08-23T07:49:06.565Z,100255.61
2022-08-23T07:51:48.631Z,100252.98
2022-08-23T07:54:20.018Z,100251.98
2022-08-23T07:57:01.318Z,100251.70
2022-08-23T07:59:51.885Z,100254.27
2022-08-23T08:02:31.208Z,100250.64
2022-08-23T08:05:01.158Z,100252.48
2022-08-23T08:07:31.873Z,100246.34
2022-08-23T08:10:08.819Z,100250.61
2022-08-23T08:12:38.381Z,100249.52
2022-08-23T08:15:17.801Z,100250.20
2022-08-23T08:17:50.277Z,100249.04
2022-08-23T08:20:21.325Z,100251.48
2022-08-23T08:22:58.628Z,100254.05
2022-08-23T08:26:05.883Z,100253.48
2022-08-23T08:28:37.410Z,100251.48
2022-08-23T08:31:09.406Z,100250.42
2022-08-23T08:33:39.157Z,100247.17
2022-08-23T08:36:28.217Z,100243.94
2022-08-23T08:39:00.721Z,100246.56
2022-08-23T08:42:05.006Z,100250.39
2022-08-23T08:44:48.961Z,100248.32
2022-08-23T08:47:37.127Z,100248.27
2022-08-23T08:50:07.212Z,100249.00
2022-08-23T08:52:55.735Z,100254.86
2022-08-23T08:55:48.582Z,100254.29
2022-08-23T08:58:30.033Z,100252.34
2022-08-23T09:01:00.194Z,100248.25
2022-08-23T09:03:33.746Z,100251.20
2022-08-23T09:06:17.528Z,100249.27
2022-08-23T09:08:59.199Z,100253.60
2022-08-23T09:11:51.289Z,100256.45
2022-08-23T09:14:23.960Z,100255.70
2022-08-23T09:17:06.582Z,100252.83
2022-08-23T09:19:38.449Z,100253.08
2022-08-23T09:22:17.150Z,100252.55
2022-08-23T09:24:47.296Z,100251.38
2022-08-23T09:27:27.252Z,100248.73
2022-08-23T09:30:01.555Z,100250.81
2022-08-23T09:32:44.436Z,100246.31
2022-08-23T09:35:24.435Z,100247.54
2022-08-23T09:38:21.151Z,100245.36
2022-08-23T09:40:54.313Z,100245.95
2022-08-23T09:43:28.187Z,100239.17
2022-08-23T09:46:01.278Z,100239.63
2022-08-23T09:48:42.796Z,100245.14
2022-08-23T09:51:34.298Z,100243.70
2022-08-23T09:54:19.736Z,100243.45
2022-08-23T09:56:54.924Z,100245.58
2022-08-23T09:59:27.248Z,100243.29
2022-08-23T10:36:34.683Z,100226.07
2022-08-23T10:43:43.686Z,100226.63
2022-08-23T10:46:13.542Z,100227.67
2022-08-23T10:48:54.552Z,100230.34
2022-08-23T10:51:32.058Z,100228.50
2022-08-23T10:54:47.258Z,100227.23
2022-08-23T10:57:43.556Z,100224.75
2022-08-23T11:00:27.706Z,100222.39
2022-08-23T11:04:05.154Z,100219.13
2022-08-23T11:12:13.063Z,100216.82
2022-08-23T11:14:46.155Z,100215.76
2022-08-23T11:17:29.086Z,100212.02
2022-08-23T11:23:15.028Z,100200.88
2022-08-23T11:25:46.669Z,100205.31
2022-08-23T11:29:19.726Z,100202.77
2022-08-23T11:32:14.710Z,100204.20
2022-08-23T11:35:12.770Z,100204.73
2022-08-23T11:38:04.147Z,100203.10
2022-08-23T11:40:51.600Z,100205.60
2022-08-23T11:43:38.901Z,100202.47
2022-08-23T11:46:27.271Z,100204.13
2022-08-23T11:49:12.471Z,100202.57
2022-08-23T11:56:14.396Z,100195.66
2022-08-23T12:03:00.445Z,100188.45
2022-08-23T12:10:06.233Z,100188.89
2022-08-23T12:12:39.446Z,100190.09
2022-08-23T12:15:13.857Z,100182.60
2022-08-23T12:17:47.171Z,100178.71
2022-08-23T12:20:57.404Z,100169.83
2022-08-23T12:23:26.860Z,100170.23
2022-08-23T12:26:10.471Z,100162.42
2022-08-23T12:28:48.047Z,100164.90
2022-08-23T12:45:15.276Z,100212.80
2022-08-23T12:56:31.901Z,100204.36
2022-08-23T12:59:05.388Z,100256.22
2022-08-23T13:01:39.247Z,100262.66
2022-08-23T13:19:18.693Z,100227.61
2022-08-23T13:21:47.641Z,100195.78
2022-08-23T13:24:38.570Z,100215.05
2022-08-23T13:27:38.483Z,100223.69
2022-08-23T13:30:11.615Z,100233.77
2022-08-23T13:32:41.914Z,100227.08
2022-08-23T13:35:34.122Z,100222.77
2022-08-23T13:38:21.594Z,100245.45
2022-08-23T13:41:11.116Z,100245.93
2022-08-23T13:43:40.260Z,100239.52
2022-08-23T13:46:23.736Z,100231.91
2022-08-23T13:48:52.361Z,100221.73
2022-08-23T13:51:38.881Z,100208.85
2022-08-23T13:54:12.417Z,100211.50
2022-08-23T14:01:19.808Z,100234.73
2022-08-23T14:03:49.028Z,100239.59
2022-08-23T14:06:18.300Z,100229.58
2022-08-23T14:08:48.920Z,100231.17
2022-08-23T14:11:18.142Z,100235.86
2022-08-23T14:13:49.702Z,100232.05
2022-08-23T14:21:02.861Z,100250.14
2022-08-23T14:23:32.511Z,100272.92
2022-08-23T14:26:22.439Z,100289.60
2022-08-23T14:28:54.258Z,100289.08
2022-08-23T14:31:24.736Z,100290.67
2022-08-23T14:33:53.587Z,100308.95
2022-08-23T14:36:22.047Z,100342.02
2022-08-23T14:38:55.292Z,100361.07
2022-08-23T14:41:26.785Z,100366.69
2022-08-23T14:43:56.333Z,100367.73
2022-08-23T14:46:25.815Z,100365.20
2022-08-23T14:48:54.860Z,100378.86
2022-08-23T14:51:25.492Z,100387.80
2022-08-23T14:53:54.961Z,100399.16
2022-08-23T14:56:23.860Z,100400.49
2022-08-23T14:58:53.603Z,100406.27
2022-08-23T15:01:23.459Z,100386.27
2022-08-23T15:03:53.859Z,100371.15
2022-08-23T15:06:22.822Z,100378.36
2022-08-23T15:08:53.960Z,100392.42
2022-08-23T15:14:13.037Z,100397.02
2022-08-23T15:16:42.158Z,100385.25
2022-08-23T15:19:11.110Z,100380.31
2022-08-23T15:21:40.312Z,100369.81
2022-08-23T15:24:09.306Z,100352.77
2022-08-23T15:26:38.320Z,100344.19
2022-08-23T15:29:07.448Z,100345.70
2022-08-23T15:31:36.582Z,100350.65
2022-08-23T15:34:06.161Z,100355.23
2022-08-23T15:36:42.575Z,100355.58
2022-08-23T15:39:10.727Z,100355.23
2022-08-23T15:41:38.877Z,100346.30
2022-08-23T15:44:07.090Z,100345.54
2022-08-23T15:46:37.701Z,100342.48
2022-08-23T15:50:09.147Z,100337.04
2022-08-23T15:52:37.871Z,100329.03
2022-08-23T15:55:07.311Z,100323.40
2022-08-23T15:57:46.963Z,100320.98
2022-08-23T16:00:17.874Z,100317.98
2022-08-23T16:03:17.221Z,100319.80
2022-08-23T16:05:34.324Z,100319.80
2022-08-23T16:08:48.781Z,100323.57
2022-08-23T16:11:17.495Z,100320.67
2022-08-23T16:13:48.064Z,100324.10
2022-08-23T16:16:30.554Z,100324.16
2022-08-23T16:19:00.324Z,100321.48
2022-08-23T16:21:31.041Z,100317.29
2022-08-23T16:24:00.018Z,100317.44
2022-08-23T16:26:34.841Z,100317.70
2022-08-23T16:29:07.608Z,100314.45
2022-08-23T16:31:38.347Z,100314.42
2022-08-23T16:34:11.074Z,100310.12
2022-08-23T16:36:41.676Z,100310.92
2022-08-23T16:39:12.601Z,100312.89
2022-08-23T16:41:41.059Z,100318.68
2022-08-23T16:44:09.203Z,100320.19
2022-08-23T16:46:41.163Z,100333.09
2022-08-23T16:49:11.394Z,100335.63
2022-08-23T16:51:39.917Z,100346.21
2022-08-23T16:54:11.074Z,100356.14
2022-08-23T16:56:40.275Z,100355.20
2022-08-23T16:59:10.158Z,100362.23
2022-08-23T17:02:01.518Z,100353.41
2022-08-23T17:04:39.051Z,100350.92
2022-08-23T17:07:07.796Z,100345.20
2022-08-23T17:09:36.013Z,100343.48
2022-08-23T17:12:04.322Z,100342.98
2022-08-23T17:14:32.451Z,100337.22
2022-08-23T17:17:00.647Z,100335.56
2022-08-23T17:19:28.886Z,100345.73
2022-08-23T17:22:01.401Z,100351.20
2022-08-23T17:24:29.615Z,100359.54
2022-08-23T17:26:57.937Z,100361.31
2022-08-23T17:29:26.062Z,100366.33
2022-08-23T17:31:54.297Z,100368.95
2022-08-23T17:34:22.442Z,100366.11
2022-08-23T17:36:52.976Z,100368.81
2022-08-23T17:39:24.850Z,100370.11
2022-08-23T17:41:54.139Z,100365.59
2022-08-23T17:44:22.594Z,100362.45
2022-08-23T17:46:51.418Z,100359.41
2022-08-23T17:49:20.382Z,100359.65
2022-08-23T17:51:48.704Z,100363.89
2022-08-23T17:54:17.361Z,100358.79
2022-08-23T17:56:49.840Z,100359.87
2022-08-23T17:59:20.181Z,100361.52
2022-08-23T18:01:48.417Z,100360.58
2022-08-23T18:04:17.013Z,100360.81
2022-08-23T18:06:45.958Z,100362.25
2022-08-23T18:09:15.404Z,100358.41
2022-08-23T18:12:09.166Z,100362.71
2022-08-23T18:14:37.532Z,100369.01
2022-08-23T18:17:05.821Z,100366.11
2022-08-23T18:19:34.047Z,100368.51
2022-08-23T18:22:02.730Z,100361.79
2022-08-23T18:24:32.081Z,100364.77
2022-08-23T18:27:21.506Z,100366.90
2022-08-23T18:29:51.565Z,100368.19
2022-08-23T18:32:20.790Z,100374.23
2022-08-23T18:34:49.346Z,100374.48
2022-08-23T18:37:18.783Z,100373.86
2022-08-23T18:39:46.963Z,100370.39
2022-08-23T18:42:15.636Z,100373.12
2022-08-23T18:44:44.615Z,100376.84
2022-08-23T18:47:12.820Z,100373.51
2022-08-23T18:49:42.560Z,100372.61
2022-08-23T18:52:10.654Z,100366.56
2022-08-23T18:54:39.232Z,100368.23
2022-08-23T18:57:07.832Z,100367.27
2022-08-23T18:59:45.637Z,100370.16
2022-08-23T19:02:14.001Z,100372.30
2022-08-23T19:04:42.815Z,100372.21
2022-08-23T19:07:10.933Z,100374.70
2022-08-23T19:09:38.920Z,100382.73
2022-08-23T19:12:08.394Z,100376.64
2022-08-23T19:14:37.411Z,100371.41
2022-08-23T19:17:08.362Z,100367.70
2022-08-23T19:19:36.585Z,100370.45
2022-08-23T19:22:05.000Z,100373.59
2022-08-23T19:24:33.535Z,100367.57
2022-08-23T19:27:02.227Z,100372.46
2022-08-23T19:29:31.753Z,100373.61
2022-08-23T19:32:00.436Z,100373.59
2022-08-23T19:34:29.036Z,100372.30
2022-08-23T19:37:01.499Z,100375.10
2022-08-23T19:39:32.172Z,100378.36
2022-08-23T19:42:00.550Z,100380.54
2022-08-23T19:44:31.353Z,100382.52
2022-08-23T19:47:00.174Z,100384.30
2022-08-23T19:49:31.337Z,100384.33
2022-08-23T19:52:00.279Z,100385.71
2022-08-23T19:54:28.495Z,100389.91
2022-08-23T19:57:00.249Z,100388.09
2022-08-23T19:59:31.955Z,100385.73
2022-08-23T20:02:01.406Z,100383.84
2022-08-23T20:04:31.849Z,100378.26
2022-08-23T20:07:01.730Z,100374.23
2022-08-23T20:09:32.368Z,100374.52
2022-08-23T20:12:01.355Z,100373.05
2022-08-23T20:14:34.319Z,100375.23
2022-08-23T20:17:07.745Z,100375.44
2022-08-23T20:19:36.806Z,100373.54
2022-08-23T20:26:10.813Z,100384.77
2022-08-23T20:28:40.051Z,100409.50
2022-08-23T20:31:32.854Z,100444.14
2022-08-23T20:34:01.842Z,100459.27
2022-08-23T20:36:32.300Z,100468.16
2022-08-23T20:39:02.093Z,100470.65
2022-08-23T20:41:36.321Z,100481.48
2022-08-23T20:44:07.672Z,100494.46
2022-08-23T20:46:37.029Z,100503.86
2022-08-23T20:49:06.896Z,100522.95
2022-08-23T20:51:36.741Z,100534.33
2022-08-23T20:54:08.194Z,100534.76
2022-08-23T20:56:37.756Z,100534.26
2022-08-23T20:59:08.520Z,100530.60
2022-08-23T21:01:37.863Z,100526.00
2022-08-23T21:04:08.395Z,100506.11
2022-08-23T21:06:48.974Z,100493.05
2022-08-23T21:12:56.497Z,100480.08
2022-08-23T21:15:25.168Z,100495.52
2022-08-23T21:17:54.011Z,100510.49
2022-08-23T21:20:22.623Z,100503.75
2022-08-23T21:22:52.044Z,100498.17
2022-08-23T21:25:22.075Z,100476.59
2022-08-23T21:27:51.124Z,100455.23
2022-08-23T21:30:20.578Z,100448.09
2022-08-23T21:32:50.567Z,100444.48
2022-08-23T21:35:19.214Z,100443.81
2022-08-23T21:37:48.549Z,100435.10
2022-08-23T21:40:17.100Z,100432.77
2022-08-23T21:42:48.769Z,100424.93
2022-08-23T21:45:17.369Z,100422.75
2022-08-23T21:47:47.191Z,100422.02
2022-08-23T21:50:16.367Z,100422.45
2022-08-23T21:52:56.669Z,100419.74
2022-08-23T21:55:36.280Z,100419.07
2022-08-23T21:58:06.902Z,100415.10
2022-08-23T22:00:35.483Z,100415.24
2022-08-23T22:03:05.094Z,100412.73
2022-08-23T22:05:33.806Z,100413.52
2022-08-23T22:08:02.177Z,100416.13
2022-08-23T22:10:30.417Z,100410.35
2022-08-23T22:12:58.680Z,100408.27
2022-08-23T22:15:26.896Z,100412.41
2022-08-23T22:17:55.070Z,100410.52
2022-08-23T22:20:23.225Z,100408.66
2022-08-23T22:22:51.386Z,100410.58
2022-08-23T22:25:19.834Z,100411.01
2022-08-23T22:27:48.084Z,100412.77
2022-08-23T22:30:17.552Z,100414.63
2022-08-23T22:32:45.868Z,100423.09
2022-08-23T22:35:14.455Z,100426.48
2022-08-23T22:38:03.562Z,100425.28
2022-08-23T22:40:34.557Z,100426.14
2022-08-23T22:43:03.221Z,100429.87
2022-08-23T22:45:31.954Z,100434.52
2022-08-23T22:48:00.812Z,100433.38
2022-08-23T22:50:29.302Z,100431.64
2022-08-23T22:52:58.116Z,100438.39
2022-08-23T22:55:27.153Z,100437.73
2022-08-23T22:57:56.200Z,100439.38
